sensor_id;sensor_type;location;lat;lon;timestamp;pressure;altitude;pressure_sealevel;temperature;humidity
80699;BME280;70062;51.658;5.658;2024-01-15T00:00:39;100188.48;;;23.18;24.69
80699;BME280;70062;51.658;5.658;2024-01-15T00:03:04;100185.98;;;23.35;24.52
80699;BME280;70062;51.658;5.658;2024-01-15T00:05:30;100178.50;;;23.44;24.44
80699;BME280;70062;51.658;5.658;2024-01-15T00:07:55;100177.59;;;23.46;24.43
80699;BME280;70062;51.658;5.658;2024-01-15T00:10:20;100173.04;;;23.34;24.32
80699;BME280;70062;51.658;5.658;2024-01-15T00:12:46;100172.13;;;23.11;24.44
80699;BME280;70062;51.658;5.658;2024-01-15T00:15:11;100169.75;;;23.05;24.83
80699;BME280;70062;51.658;5.658;2024-01-15T00:19:26;100171.81;;;23.34;24.66
80699;BME280;70062;51.658;5.658;2024-01-15T00:21:52;100160.96;;;23.45;24.54
80699;BME280;70062;51.658;5.658;2024-01-15T00:24:18;100158.44;;;23.50;24.27
80699;BME280;70062;51.658;5.658;2024-01-15T00:26:44;100157.20;;;23.39;24.35
80699;BME280;70062;51.658;5.658;2024-01-15T00:29:09;100157.17;;;23.16;24.48
80699;BME280;70062;51.658;5.658;2024-01-15T00:31:35;100153.46;;;23.05;24.68
80699;BME280;70062;51.658;5.658;2024-01-15T00:34:02;100156.74;;;23.22;24.61
80699;BME280;70062;51.658;5.658;2024-01-15T00:36:28;100154.08;;;23.37;24.51
80699;BME280;70062;51.658;5.658;2024-01-15T00:38:54;100146.58;;;23.47;24.39
80699;BME280;70062;51.658;5.658;2024-01-15T00:41:19;100143.06;;;23.47;24.35
80699;BME280;70062;51.658;5.658;2024-01-15T00:43:45;100139.77;;;23.33;24.45
80699;BME280;70062;51.658;5.658;2024-01-15T00:46:11;100137.14;;;23.09;24.51
80699;BME280;70062;51.658;5.658;2024-01-15T00:48:36;100130.95;;;23.00;24.83
80699;BME280;70062;51.658;5.658;2024-01-15T00:51:03;100129.70;;;23.15;24.78
80699;BME280;70062;51.658;5.658;2024-01-15T00:53:29;100129.98;;;23.31;24.55
80699;BME280;70062;51.658;5.658;2024-01-15T00:55:54;100125.83;;;23.41;24.44
80699;BME280;70062;51.658;5.658;2024-01-15T00:58:19;100124.44;;;23.39;24.45
80699;BME280;70062;51.658;5.658;2024-01-15T01:00:45;100128.71;;;23.23;24.59
80699;BME280;70062;51.658;5.658;2024-01-15T01:03:10;100125.38;;;22.98;24.62
80699;BME280;70062;51.658;5.658;2024-01-15T01:05:35;100123.66;;;22.95;24.86
80699;BME280;70062;51.658;5.658;2024-01-15T01:08:01;100122.77;;;23.11;24.99
80699;BME280;70062;51.658;5.658;2024-01-15T01:10:27;100114.21;;;23.21;24.67
80699;BME280;70062;51.658;5.658;2024-01-15T01:12:53;100111.45;;;23.24;24.62
80699;BME280;70062;51.658;5.658;2024-01-15T01:15:18;100114.45;;;23.16;24.63
80699;BME280;70062;51.658;5.658;2024-01-15T01:17:43;100114.76;;;22.94;24.60
80699;BME280;70062;51.658;5.658;2024-01-15T01:20:09;100120.88;;;22.80;25.03
80699;BME280;70062;51.658;5.658;2024-01-15T01:22:36;100117.77;;;22.91;25.12
80699;BME280;70062;51.658;5.658;2024-01-15T01:25:01;100115.23;;;23.12;24.89
80699;BME280;70062;51.658;5.658;2024-01-15T01:27:27;100112.40;;;23.25;24.61
80699;BME280;70062;51.658;5.658;2024-01-15T01:29:52;100111.15;;;23.26;24.54
80699;BME280;70062;51.658;5.658;2024-01-15T01:38:06;100121.85;;;22.87;25.00
80699;BME280;70062;51.658;5.658;2024-01-15T01:40:31;100119.85;;;23.05;24.91
80699;BME280;70062;51.658;5.658;2024-01-15T01:42:57;100116.29;;;23.22;24.79
80699;BME280;70062;51.658;5.658;2024-01-15T01:45:22;100119.13;;;23.31;24.52
80699;BME280;70062;51.658;5.658;2024-01-15T01:47:48;100117.04;;;23.30;24.56
80699;BME280;70062;51.658;5.658;2024-01-15T01:50:14;100122.02;;;23.13;24.53
80699;BME280;70062;51.658;5.658;2024-01-15T01:52:39;100127.40;;;22.90;24.69
80699;BME280;70062;51.658;5.658;2024-01-15T01:55:06;100131.59;;;22.91;24.96
80699;BME280;70062;51.658;5.658;2024-01-15T01:57:33;100131.00;;;23.09;24.83
80699;BME280;70062;51.658;5.658;2024-01-15T01:59:59;100122.58;;;23.24;24.72
80699;BME280;70062;51.658;5.658;2024-01-15T02:02:25;100121.07;;;23.31;24.59
80699;BME280;70062;51.658;5.658;2024-01-15T02:04:53;100119.58;;;23.24;24.50
80699;BME280;70062;51.658;5.658;2024-01-15T02:07:19;100117.76;;;23.05;24.67
80699;BME280;70062;51.658;5.658;2024-01-15T02:09:44;100119.23;;;22.86;24.76
80699;BME280;70062;51.658;5.658;2024-01-15T02:12:10;100120.02;;;22.93;24.82
80699;BME280;70062;51.658;5.658;2024-01-15T02:14:36;100115.62;;;23.08;24.77
80699;BME280;70062;51.658;5.658;2024-01-15T02:17:01;100110.75;;;23.17;24.64
80699;BME280;70062;51.658;5.658;2024-01-15T02:19:27;100114.41;;;23.19;24.61
80699;BME280;70062;51.658;5.658;2024-01-15T02:21:52;100116.32;;;23.07;24.52
80699;BME280;70062;51.658;5.658;2024-01-15T02:24:17;100115.41;;;22.84;24.73
80699;BME280;70062;51.658;5.658;2024-01-15T02:26:43;100114.23;;;22.78;24.95
80699;BME280;70062;51.658;5.658;2024-01-15T02:29:09;100113.35;;;22.95;24.93
80699;BME280;70062;51.658;5.658;2024-01-15T02:31:36;100114.35;;;23.12;24.85
80699;BME280;70062;51.658;5.658;2024-01-15T02:34:01;100111.76;;;23.21;24.54
80699;BME280;70062;51.658;5.658;2024-01-15T02:36:27;100104.23;;;23.20;24.48
80699;BME280;70062;51.658;5.658;2024-01-15T02:38:52;100109.48;;;23.08;24.50
80699;BME280;70062;51.658;5.658;2024-01-15T02:41:21;100110.33;;;22.84;24.67
80699;BME280;70062;51.658;5.658;2024-01-15T02:43:46;100109.14;;;22.80;24.94
80699;BME280;70062;51.658;5.658;2024-01-15T02:46:11;100107.52;;;22.98;24.89
80699;BME280;70062;51.658;5.658;2024-01-15T02:48:37;100100.64;;;23.15;24.67
80699;BME280;70062;51.658;5.658;2024-01-15T02:51:02;100105.25;;;23.23;24.54
80699;BME280;70062;51.658;5.658;2024-01-15T02:53:28;100106.50;;;23.21;24.65
80699;BME280;70062;51.658;5.658;2024-01-15T02:55:53;100111.96;;;23.06;24.53
80699;BME280;70062;51.658;5.658;2024-01-15T02:58:22;100110.52;;;22.82;24.73
80699;BME280;70062;51.658;5.658;2024-01-15T03:00:47;100113.86;;;22.81;25.01
80699;BME280;70062;51.658;5.658;2024-01-15T03:03:13;100114.86;;;22.99;24.83
80699;BME280;70062;51.658;5.658;2024-01-15T03:05:38;100113.58;;;23.16;24.71
80699;BME280;70062;51.658;5.658;2024-01-15T03:08:04;100114.70;;;23.23;24.52
80699;BME280;70062;51.658;5.658;2024-01-15T03:10:29;100115.28;;;23.19;24.49
80699;BME280;70062;51.658;5.658;2024-01-15T03:12:55;100113.41;;;23.02;24.63
80699;BME280;70062;51.658;5.658;2024-01-15T03:15:20;100113.17;;;22.81;24.68
80699;BME280;70062;51.658;5.658;2024-01-15T03:17:46;100113.28;;;22.86;24.92
80699;BME280;70062;51.658;5.658;2024-01-15T03:20:12;100114.12;;;23.02;24.81
80699;BME280;70062;51.658;5.658;2024-01-15T03:22:37;100109.43;;;23.12;24.79
80699;BME280;70062;51.658;5.658;2024-01-15T03:25:03;100105.55;;;23.15;24.71
80699;BME280;70062;51.658;5.658;2024-01-15T03:27:34;100109.35;;;23.05;24.65
80699;BME280;70062;51.658;5.658;2024-01-15T03:30:04;100107.39;;;22.81;24.65
80699;BME280;70062;51.658;5.658;2024-01-15T03:32:30;100101.18;;;22.72;25.07
80699;BME280;70062;51.658;5.658;2024-01-15T03:34:55;100103.42;;;22.89;24.74
80699;BME280;70062;51.658;5.658;2024-01-15T03:37:23;100099.84;;;23.09;24.62
80699;BME280;70062;51.658;5.658;2024-01-15T03:39:49;100093.41;;;23.18;24.62
80699;BME280;70062;51.658;5.658;2024-01-15T03:49:08;100091.86;;;22.76;24.89
80699;BME280;70062;51.658;5.658;2024-01-15T03:51:34;100091.34;;;22.91;24.89
80699;BME280;70062;51.658;5.658;2024-01-15T03:53:59;100086.68;;;23.11;24.68
80699;BME280;70062;51.658;5.658;2024-01-15T03:56:24;100085.30;;;23.21;24.55
80699;BME280;70062;51.658;5.658;2024-01-15T03:58:50;100084.78;;;23.21;24.39
80699;BME280;70062;51.658;5.658;2024-01-15T04:01:15;100087.40;;;23.10;24.39
80699;BME280;70062;51.658;5.658;2024-01-15T04:03:41;100085.78;;;22.88;24.59
80699;BME280;70062;51.658;5.658;2024-01-15T04:06:06;100086.94;;;22.79;24.79
80699;BME280;70062;51.658;5.658;2024-01-15T04:08:32;100082.52;;;22.96;24.63
80699;BME280;70062;51.658;5.658;2024-01-15T04:11:01;100078.98;;;23.12;24.57
80699;BME280;70062;51.658;5.658;2024-01-15T04:13:27;100079.70;;;23.22;24.52
80699;BME280;70062;51.658;5.658;2024-01-15T04:15:52;100073.06;;;23.20;24.38
80699;BME280;70062;51.658;5.658;2024-01-15T04:18:42;100071.89;;;23.05;24.50
80699;BME280;70062;51.658;5.658;2024-01-15T04:21:13;100057.08;;;22.73;24.73
80699;BME280;70062;51.658;5.658;2024-01-15T04:23:41;100062.45;;;22.78;24.79
80699;BME280;70062;51.658;5.658;2024-01-15T04:26:08;100068.09;;;23.01;24.75
80699;BME280;70062;51.658;5.658;2024-01-15T04:28:34;100037.17;;;22.96;24.67
80699;BME280;70062;51.658;5.658;2024-01-15T04:30:59;100060.21;;;23.13;24.55
80699;BME280;70062;51.658;5.658;2024-01-15T04:33:25;100061.56;;;23.05;24.39
80699;BME280;70062;51.658;5.658;2024-01-15T04:35:50;100058.71;;;22.83;24.66
80699;BME280;70062;51.658;5.658;2024-01-15T04:38:15;100051.80;;;22.74;24.97
80699;BME280;70062;51.658;5.658;2024-01-15T04:40:41;100047.21;;;22.92;24.66
80699;BME280;70062;51.658;5.658;2024-01-15T04:43:06;100046.34;;;23.16;24.68
80699;BME280;70062;51.658;5.658;2024-01-15T04:45:31;100038.24;;;23.52;24.37
80699;BME280;70062;51.658;5.658;2024-01-15T04:47:57;100040.40;;;23.99;23.94
80699;BME280;70062;51.658;5.658;2024-01-15T04:50:25;100034.38;;;24.40;23.53
80699;BME280;70062;51.658;5.658;2024-01-15T04:52:51;100028.04;;;24.67;23.06
80699;BME280;70062;51.658;5.658;2024-01-15T04:55:16;100032.85;;;24.79;22.89
80699;BME280;70062;51.658;5.658;2024-01-15T04:57:42;100038.99;;;24.79;22.73
80699;BME280;70062;51.658;5.658;2024-01-15T05:02:57;100031.39;;;24.50;22.75
80699;BME280;70062;51.658;5.658;2024-01-15T05:05:22;100039.85;;;24.10;23.00
80699;BME280;70062;51.658;5.658;2024-01-15T05:14:42;100045.50;;;24.17;23.10
80699;BME280;70062;51.658;5.658;2024-01-15T05:17:07;100045.40;;;24.04;23.16
80699;BME280;70062;51.658;5.658;2024-01-15T05:19:32;100049.02;;;23.78;23.48
80699;BME280;70062;51.658;5.658;2024-01-15T05:21:58;100051.58;;;23.62;23.69
80699;BME280;70062;51.658;5.658;2024-01-15T05:24:23;100045.51;;;23.69;23.70
80699;BME280;70062;51.658;5.658;2024-01-15T05:26:52;100034.59;;;23.82;23.55
80699;BME280;70062;51.658;5.658;2024-01-15T05:29:20;100033.42;;;23.87;23.56
80699;BME280;70062;51.658;5.658;2024-01-15T05:31:46;100031.07;;;23.83;23.45
80699;BME280;70062;51.658;5.658;2024-01-15T05:34:11;100023.58;;;23.60;23.57
80699;BME280;70062;51.658;5.658;2024-01-15T05:36:37;100029.67;;;23.40;23.60
80699;BME280;70062;51.658;5.658;2024-01-15T05:39:02;100028.88;;;23.46;23.89
80699;BME280;70062;51.658;5.658;2024-01-15T05:41:28;100026.02;;;23.60;23.72
80699;BME280;70062;51.658;5.658;2024-01-15T05:43:53;100027.96;;;23.70;23.55
80699;BME280;70062;51.658;5.658;2024-01-15T05:46:18;100028.30;;;23.71;23.63
80699;BME280;70062;51.658;5.658;2024-01-15T05:48:44;100031.01;;;23.55;23.72
80699;BME280;70062;51.658;5.658;2024-01-15T05:51:10;100025.44;;;23.31;23.91
80699;BME280;70062;51.658;5.658;2024-01-15T05:53:36;100031.09;;;23.28;24.09
80699;BME280;70062;51.658;5.658;2024-01-15T05:56:05;100026.63;;;23.44;24.07
80699;BME280;70062;51.658;5.658;2024-01-15T05:58:31;100027.48;;;23.57;23.92
80699;BME280;70062;51.658;5.658;2024-01-15T06:00:58;100030.20;;;23.62;23.78
80699;BME280;70062;51.658;5.658;2024-01-15T06:03:24;100027.73;;;23.52;23.89
80699;BME280;70062;51.658;5.658;2024-01-15T06:05:49;100020.06;;;23.28;23.99
80699;BME280;70062;51.658;5.658;2024-01-15T06:08:14;100011.13;;;23.17;24.11
80699;BME280;70062;51.658;5.658;2024-01-15T06:10:40;100006.34;;;23.32;24.14
80699;BME280;70062;51.658;5.658;2024-01-15T06:13:11;100012.14;;;23.52;24.06
80699;BME280;70062;51.658;5.658;2024-01-15T06:15:40;100002.56;;;23.59;23.87
80699;BME280;70062;51.658;5.658;2024-01-15T06:18:06;100003.52;;;23.54;23.90
80699;BME280;70062;51.658;5.658;2024-01-15T06:20:32;100001.59;;;23.34;24.03
80699;BME280;70062;51.658;5.658;2024-01-15T06:22:58;99996.70;;;23.22;24.08
80699;BME280;70062;51.658;5.658;2024-01-15T06:25:23;99994.36;;;23.36;24.15
80699;BME280;70062;51.658;5.658;2024-01-15T06:27:49;99996.85;;;23.55;23.99
80699;BME280;70062;51.658;5.658;2024-01-15T06:30:14;99999.48;;;23.66;23.79
80699;BME280;70062;51.658;5.658;2024-01-15T06:32:40;99997.23;;;23.64;23.76
80699;BME280;70062;51.658;5.658;2024-01-15T06:38:26;99994.85;;;23.28;24.10
80699;BME280;70062;51.658;5.658;2024-01-15T06:40:51;99997.77;;;23.42;24.05
80699;BME280;70062;51.658;5.658;2024-01-15T06:43:17;99997.12;;;23.60;23.90
80699;BME280;70062;51.658;5.658;2024-01-15T06:45:46;99999.94;;;23.70;23.81
80699;BME280;70062;51.658;5.658;2024-01-15T06:48:11;99996.48;;;23.67;23.89
80699;BME280;70062;51.658;5.658;2024-01-15T06:50:41;99997.02;;;23.45;23.75
80699;BME280;70062;51.658;5.658;2024-01-15T06:53:07;99996.63;;;23.15;23.98
80699;BME280;70062;51.658;5.658;2024-01-15T06:55:32;99999.22;;;22.95;24.20
80699;BME280;70062;51.658;5.658;2024-01-15T06:57:58;100001.33;;;22.68;24.42
80699;BME280;70062;51.658;5.658;2024-01-15T07:02:44;100004.13;;;22.25;24.92
80699;BME280;70062;51.658;5.658;2024-01-15T07:05:10;100003.77;;;21.92;25.42
80699;BME280;70062;51.658;5.658;2024-01-15T07:07:36;100004.98;;;21.95;25.75
80699;BME280;70062;51.658;5.658;2024-01-15T07:10:01;100001.55;;;22.37;25.62
80699;BME280;70062;51.658;5.658;2024-01-15T07:12:29;99998.95;;;22.89;25.08
80699;BME280;70062;51.658;5.658;2024-01-15T07:14:55;99998.00;;;23.28;24.51
80699;BME280;70062;51.658;5.658;2024-01-15T07:23:58;99989.36;;;23.31;24.28
80699;BME280;70062;51.658;5.658;2024-01-15T07:33:18;99988.30;;;23.73;23.95
80699;BME280;70062;51.658;5.658;2024-01-15T07:35:44;99995.27;;;23.55;24.13
80699;BME280;70062;51.658;5.658;2024-01-15T07:38:09;100001.09;;;23.31;24.41
80699;BME280;70062;51.658;5.658;2024-01-15T07:40:37;100003.15;;;23.23;24.68
80699;BME280;70062;51.658;5.658;2024-01-15T07:43:02;100004.86;;;23.36;24.77
80699;BME280;70062;51.658;5.658;2024-01-15T07:45:28;100009.91;;;23.59;24.65
80699;BME280;70062;51.658;5.658;2024-01-15T07:47:53;100010.37;;;23.92;24.27
80699;BME280;70062;51.658;5.658;2024-01-15T07:50:19;100017.02;;;24.31;23.91
80699;BME280;70062;51.658;5.658;2024-01-15T07:52:47;100016.48;;;24.58;23.57
80699;BME280;70062;51.658;5.658;2024-01-15T07:55:14;100014.59;;;24.72;23.43
80699;BME280;70062;51.658;5.658;2024-01-15T07:57:39;100013.33;;;24.73;23.27
80699;BME280;70062;51.658;5.658;2024-01-15T08:00:06;100017.36;;;24.65;23.21
80699;BME280;70062;51.658;5.658;2024-01-15T08:02:32;100016.44;;;24.43;23.31
80699;BME280;70062;51.658;5.658;2024-01-15T08:05:00;100017.39;;;24.11;23.46
80699;BME280;70062;51.658;5.658;2024-01-15T08:07:26;100011.83;;;23.89;23.74
80699;BME280;70062;51.658;5.658;2024-01-15T08:09:53;100013.95;;;23.98;23.93
80699;BME280;70062;51.658;5.658;2024-01-15T08:12:18;100017.27;;;24.26;23.87
80699;BME280;70062;51.658;5.658;2024-01-15T08:14:44;100027.20;;;24.65;23.50
80699;BME280;70062;51.658;5.658;2024-01-15T08:17:11;100028.35;;;25.00;23.05
80699;BME280;70062;51.658;5.658;2024-01-15T08:19:37;100027.67;;;25.22;22.75
80699;BME280;70062;51.658;5.658;2024-01-15T08:22:06;100028.01;;;25.31;22.59
80699;BME280;70062;51.658;5.658;2024-01-15T08:24:32;100028.73;;;25.29;22.58
80699;BME280;70062;51.658;5.658;2024-01-15T08:26:58;100031.98;;;25.11;22.51
80699;BME280;70062;51.658;5.658;2024-01-15T08:29:23;100036.38;;;24.78;22.81
80699;BME280;70062;51.658;5.658;2024-01-15T08:31:50;100038.58;;;24.50;23.09
80699;BME280;70062;51.658;5.658;2024-01-15T08:34:16;100034.80;;;24.46;23.25
80699;BME280;70062;51.658;5.658;2024-01-15T08:36:42;100034.87;;;24.51;23.26
80699;BME280;70062;51.658;5.658;2024-01-15T08:39:08;100035.59;;;24.50;23.24
80699;BME280;70062;51.658;5.658;2024-01-15T08:41:34;100038.33;;;24.37;23.25
80699;BME280;70062;51.658;5.658;2024-01-15T08:44:01;100041.77;;;24.10;23.43
80699;BME280;70062;51.658;5.658;2024-01-15T08:46:28;100045.70;;;23.97;23.78
80699;BME280;70062;51.658;5.658;2024-01-15T08:48:54;100049.73;;;24.06;23.71
80699;BME280;70062;51.658;5.658;2024-01-15T08:51:21;100054.26;;;24.17;23.72
80699;BME280;70062;51.658;5.658;2024-01-15T08:53:47;100052.14;;;24.18;23.59
80699;BME280;70062;51.658;5.658;2024-01-15T08:56:13;100055.07;;;24.02;23.66
80699;BME280;70062;51.658;5.658;2024-01-15T08:58:39;100058.98;;;23.80;23.96
80699;BME280;70062;51.658;5.658;2024-01-15T09:01:05;100061.77;;;23.81;24.10
80699;BME280;70062;51.658;5.658;2024-01-15T09:03:31;100067.98;;;23.96;24.03
80699;BME280;70062;51.658;5.658;2024-01-15T09:05:57;100061.46;;;24.07;23.82
80699;BME280;70062;51.658;5.658;2024-01-15T09:08:25;100059.77;;;24.05;23.81
80699;BME280;70062;51.658;5.658;2024-01-15T09:10:53;100052.61;;;23.83;23.93
80699;BME280;70062;51.658;5.658;2024-01-15T09:13:19;100050.55;;;23.71;24.13
80699;BME280;70062;51.658;5.658;2024-01-15T09:15:46;100044.61;;;23.80;24.24
80699;BME280;70062;51.658;5.658;2024-01-15T09:18:11;100045.36;;;23.96;24.04
80699;BME280;70062;51.658;5.658;2024-01-15T09:20:37;100050.98;;;24.04;24.05
80699;BME280;70062;51.658;5.658;2024-01-15T09:23:03;100054.45;;;23.98;23.98
80699;BME280;70062;51.658;5.658;2024-01-15T09:25:30;100056.77;;;23.77;23.92
80699;BME280;70062;51.658;5.658;2024-01-15T09:27:56;100055.98;;;23.72;24.25
80699;BME280;70062;51.658;5.658;2024-01-15T09:30:21;100057.98;;;23.87;24.22
80699;BME280;70062;51.658;5.658;2024-01-15T09:32:47;100053.83;;;24.12;24.04
80699;BME280;70062;51.658;5.658;2024-01-15T09:35:12;100049.30;;;24.49;23.83
80699;BME280;70062;51.658;5.658;2024-01-15T09:37:39;100042.58;;;24.92;23.43
80699;BME280;70062;51.658;5.658;2024-01-15T09:40:06;100027.95;;;25.32;23.02
80699;BME280;70062;51.658;5.658;2024-01-15T09:42:33;100030.34;;;25.56;22.56
80699;BME280;70062;51.658;5.658;2024-01-15T09:45:03;100044.16;;;25.67;22.38
80699;BME280;70062;51.658;5.658;2024-01-15T09:47:29;100048.64;;;25.62;22.26
80699;BME280;70062;51.658;5.658;2024-01-15T09:49:55;100050.45;;;25.39;22.31
80699;BME280;70062;51.658;5.658;2024-01-15T09:52:24;100058.00;;;25.01;22.61
80699;BME280;70062;51.658;5.658;2024-01-15T09:55:13;100058.84;;;24.62;22.97
80699;BME280;70062;51.658;5.658;2024-01-15T09:57:44;100065.25;;;24.21;23.48
80699;BME280;70062;51.658;5.658;2024-01-15T10:00:10;100056.23;;;23.87;23.89
80699;BME280;70062;51.658;5.658;2024-01-15T10:02:41;100056.28;;;23.52;24.54
80699;BME280;70062;51.658;5.658;2024-01-15T10:05:27;100051.18;;;23.20;25.14
80699;BME280;70062;51.658;5.658;2024-01-15T10:08:13;100055.08;;;23.39;25.44
80699;BME280;70062;51.658;5.658;2024-01-15T10:10:58;100052.64;;;23.91;25.24
80699;BME280;70062;51.658;5.658;2024-01-15T10:13:24;100049.71;;;24.28;24.97
80699;BME280;70062;51.658;5.658;2024-01-15T10:15:49;100050.24;;;24.46;24.78
80699;BME280;70062;51.658;5.658;2024-01-15T10:18:16;100050.40;;;24.38;24.68
80699;BME280;70062;51.658;5.658;2024-01-15T10:20:41;100055.13;;;24.30;24.84
80699;BME280;70062;51.658;5.658;2024-01-15T10:23:07;100051.55;;;24.42;24.83
80699;BME280;70062;51.658;5.658;2024-01-15T10:25:35;100053.58;;;24.63;24.59
80699;BME280;70062;51.658;5.658;2024-01-15T10:28:02;100049.63;;;24.75;24.33
80699;BME280;70062;51.658;5.658;2024-01-15T10:30:28;100054.79;;;24.72;24.13
80699;BME280;70062;51.658;5.658;2024-01-15T10:33:02;100057.47;;;24.52;24.23
80699;BME280;70062;51.658;5.658;2024-01-15T10:35:29;100059.73;;;24.46;24.34
80699;BME280;70062;51.658;5.658;2024-01-15T10:37:55;100055.71;;;24.61;24.28
80699;BME280;70062;51.658;5.658;2024-01-15T10:40:20;100049.23;;;24.77;23.98
80699;BME280;70062;51.658;5.658;2024-01-15T10:42:46;100048.77;;;24.82;23.95
80699;BME280;70062;51.658;5.658;2024-01-15T10:45:16;100045.73;;;24.68;23.93
80699;BME280;70062;51.658;5.658;2024-01-15T10:47:42;100044.16;;;24.51;24.06
80699;BME280;70062;51.658;5.658;2024-01-15T10:50:09;100042.84;;;24.56;24.10
80699;BME280;70062;51.658;5.658;2024-01-15T10:52:40;100040.86;;;24.74;23.98
80699;BME280;70062;51.658;5.658;2024-01-15T11:01:50;100053.34;;;24.57;23.88
80699;BME280;70062;51.658;5.658;2024-01-15T11:04:18;100046.58;;;24.61;23.92
80699;BME280;70062;51.658;5.658;2024-01-15T11:06:45;100045.16;;;24.86;23.70
80699;BME280;70062;51.658;5.658;2024-01-15T11:09:12;100036.68;;;24.97;23.58
80699;BME280;70062;51.658;5.658;2024-01-15T11:11:42;100038.52;;;24.93;23.52
80699;BME280;70062;51.658;5.658;2024-01-15T11:26:28;100041.22;;;24.82;23.48
80699;BME280;70062;51.658;5.658;2024-01-15T11:28:58;100043.10;;;24.76;23.67
80699;BME280;70062;51.658;5.658;2024-01-15T11:34:14;100047.08;;;25.04;23.39
80699;BME280;70062;51.658;5.658;2024-01-15T11:42:00;100046.52;;;24.72;23.60
80699;BME280;70062;51.658;5.658;2024-01-15T11:44:27;100045.54;;;24.85;23.78
80699;BME280;70062;51.658;5.658;2024-01-15T11:47:05;100045.08;;;24.98;23.66
80699;BME280;70062;51.658;5.658;2024-01-15T11:52:26;100052.70;;;24.86;24.29
80699;BME280;70062;51.658;5.658;2024-01-15T11:55:19;100051.45;;;25.04;24.62
80699;BME280;70062;51.658;5.658;2024-01-15T11:57:49;100054.23;;;25.42;24.34
80699;BME280;70062;51.658;5.658;2024-01-15T12:00:16;100052.88;;;25.69;24.15
80699;BME280;70062;51.658;5.658;2024-01-15T12:02:43;100057.81;;;25.82;24.07
80699;BME280;70062;51.658;5.658;2024-01-15T12:05:17;100068.14;;;25.84;23.94
80699;BME280;70062;51.658;5.658;2024-01-15T12:07:43;100064.50;;;25.76;23.95
80699;BME280;70062;51.658;5.658;2024-01-15T12:10:10;100066.11;;;25.59;24.03
80699;BME280;70062;51.658;5.658;2024-01-15T12:15:08;100072.57;;;25.10;24.34
80699;BME280;70062;51.658;5.658;2024-01-15T12:17:34;100076.48;;;24.83;24.60
80699;BME280;70062;51.658;5.658;2024-01-15T12:20:00;100078.80;;;24.48;24.88
80699;BME280;70062;51.658;5.658;2024-01-15T12:22:25;100084.63;;;24.06;25.26
80699;BME280;70062;51.658;5.658;2024-01-15T12:24:52;100085.58;;;23.83;25.84
80699;BME280;70062;51.658;5.658;2024-01-15T12:27:18;100090.34;;;23.91;25.84
80699;BME280;70062;51.658;5.658;2024-01-15T12:29:43;100093.23;;;24.15;25.70
80699;BME280;70062;51.658;5.658;2024-01-15T12:32:09;100098.73;;;24.33;25.47
80699;BME280;70062;51.658;5.658;2024-01-15T12:34:34;100104.19;;;24.42;25.17
80699;BME280;70062;51.658;5.658;2024-01-15T12:37:00;100102.20;;;24.35;25.28
80699;BME280;70062;51.658;5.658;2024-01-15T12:39:25;100109.09;;;24.11;25.22
80699;BME280;70062;51.658;5.658;2024-01-15T12:41:51;100112.72;;;23.94;25.58
80699;BME280;70062;51.658;5.658;2024-01-15T12:44:16;100110.69;;;24.00;25.45
80699;BME280;70062;51.658;5.658;2024-01-15T12:46:42;100115.36;;;24.13;25.36
80699;BME280;70062;51.658;5.658;2024-01-15T12:49:08;100114.73;;;24.19;25.24
80699;BME280;70062;51.658;5.658;2024-01-15T12:51:36;100109.03;;;24.14;25.21
80699;BME280;70062;51.658;5.658;2024-01-15T12:54:02;100105.17;;;23.94;25.28
80699;BME280;70062;51.658;5.658;2024-01-15T12:56:28;100102.42;;;23.71;25.40
80699;BME280;70062;51.658;5.658;2024-01-15T12:58:53;100101.39;;;23.69;25.52
80699;BME280;70062;51.658;5.658;2024-01-15T13:01:19;100101.16;;;23.84;25.55
80699;BME280;70062;51.658;5.658;2024-01-15T13:03:44;100099.88;;;23.96;25.36
80699;BME280;70062;51.658;5.658;2024-01-15T13:06:09;100104.37;;;24.00;25.22
80699;BME280;70062;51.658;5.658;2024-01-15T13:08:35;100104.02;;;23.90;25.19
80699;BME280;70062;51.658;5.658;2024-01-15T13:11:00;100101.23;;;23.68;25.32
80699;BME280;70062;51.658;5.658;2024-01-15T13:13:26;100107.58;;;23.55;25.53
80699;BME280;70062;51.658;5.658;2024-01-15T13:15:52;100110.91;;;23.66;25.58
80699;BME280;70062;51.658;5.658;2024-01-15T13:18:18;100105.22;;;23.82;25.42
80699;BME280;70062;51.658;5.658;2024-01-15T13:20:43;100111.70;;;23.92;25.27
80699;BME280;70062;51.658;5.658;2024-01-15T13:23:10;100116.97;;;23.91;25.22
80699;BME280;70062;51.658;5.658;2024-01-15T13:25:36;100121.96;;;23.76;25.23
80699;BME280;70062;51.658;5.658;2024-01-15T13:28:04;100121.80;;;23.52;25.40
80699;BME280;70062;51.658;5.658;2024-01-15T13:30:30;100127.98;;;23.48;25.53
80699;BME280;70062;51.658;5.658;2024-01-15T13:32:56;100130.05;;;23.64;25.54
80699;BME280;70062;51.658;5.658;2024-01-15T13:35:22;100124.75;;;23.77;25.42
80699;BME280;70062;51.658;5.658;2024-01-15T13:37:47;100124.32;;;23.82;25.23
80699;BME280;70062;51.658;5.658;2024-01-15T13:40:12;100128.77;;;23.78;25.22
80699;BME280;70062;51.658;5.658;2024-01-15T13:42:42;100131.91;;;23.56;25.36
80699;BME280;70062;51.658;5.658;2024-01-15T13:45:07;100134.94;;;23.28;25.61
80699;BME280;70062;51.658;5.658;2024-01-15T13:47:33;100139.35;;;23.00;25.83
80699;BME280;70062;51.658;5.658;2024-01-15T13:49:58;100148.25;;;22.72;26.14
80699;BME280;70062;51.658;5.658;2024-01-15T13:52:24;100154.98;;;22.46;26.32
80699;BME280;70062;51.658;5.658;2024-01-15T13:54:49;100152.09;;;22.21;26.75
80699;BME280;70062;51.658;5.658;2024-01-15T13:57:15;100155.27;;;21.95;26.92
80699;BME280;70062;51.658;5.658;2024-01-15T13:59:41;100160.38;;;21.90;27.49
80699;BME280;70062;51.658;5.658;2024-01-15T14:02:06;100151.13;;;22.29;27.43